Fancher, Illinois
Current Conditions -  °F | °C
As of 6:15 AM on Sunday 25 Jan 2015 (Local Time) from K1H2 Reporting Station
Light Rain Light Rain  
Wind Chill: 37°   Ceiling: 4400
Heat Index: 40°   Visibility: 10mi
Dew Point: 34°   Wind: 5mph
Humidity: 78%   Direction: 160°SSE
Pressure: 29.63"   Gusts: NA
Location:  39.2654°N, 88.7413°W
Report Text: K1H2 251215Z AUTO 16004KT 10SM -RA BKN044 OVC060 05/01 A2963 RMK AO2 T00460010
Loading
Personal Weather Stations






























Interactive Weather Map New forecast layout! Learn more

10-Day Weather Forecast

Advertisements
Track Severe Weather on mobile